sensor_id;sensor_type;location;lat;lon;timestamp;P1;durP1;ratioP1;P2;durP2;ratioP2
13475;SDS011;6810;63.824;20.288;2023-07-20T00:02:04;2.03;;;0.90;;
13475;SDS011;6810;63.824;20.288;2023-07-20T00:04:32;1.10;;;1.10;;
13475;SDS011;6810;63.824;20.288;2023-07-20T00:06:59;1.90;;;1.33;;
13475;SDS011;6810;63.824;20.288;2023-07-20T00:09:29;0.90;;;0.90;;
13475;SDS011;6810;63.824;20.288;2023-07-20T00:11:56;0.80;;;0.80;;
13475;SDS011;6810;63.824;20.288;2023-07-20T00:14:26;1.40;;;1.00;;
13475;SDS011;6810;63.824;20.288;2023-07-20T00:16:54;1.20;;;1.07;;
13475;SDS011;6810;63.824;20.288;2023-07-20T00:19:23;2.40;;;1.10;;
13475;SDS011;6810;63.824;20.288;2023-07-20T00:21:52;1.20;;;1.10;;
13475;SDS011;6810;63.824;20.288;2023-07-20T00:24:20;2.10;;;0.73;;
13475;SDS011;6810;63.824;20.288;2023-07-20T00:26:47;1.03;;;0.90;;
13475;SDS011;6810;63.824;20.288;2023-07-20T00:29:14;1.10;;;0.90;;
13475;SDS011;6810;63.824;20.288;2023-07-20T00:31:41;0.80;;;0.80;;
13475;SDS011;6810;63.824;20.288;2023-07-20T00:34:10;0.90;;;0.90;;
13475;SDS011;6810;63.824;20.288;2023-07-20T00:36:39;0.80;;;0.73;;
13475;SDS011;6810;63.824;20.288;2023-07-20T00:39:07;0.90;;;0.80;;
13475;SDS011;6810;63.824;20.288;2023-07-20T00:41:34;1.10;;;1.00;;
13475;SDS011;6810;63.824;20.288;2023-07-20T00:44:02;1.67;;;1.00;;
13475;SDS011;6810;63.824;20.288;2023-07-20T00:46:29;0.80;;;0.80;;
13475;SDS011;6810;63.824;20.288;2023-07-20T00:48:56;1.97;;;0.70;;
13475;SDS011;6810;63.824;20.288;2023-07-20T00:51:24;0.77;;;0.77;;
13475;SDS011;6810;63.824;20.288;2023-07-20T00:53:53;0.97;;;0.80;;
13475;SDS011;6810;63.824;20.288;2023-07-20T00:56:20;1.57;;;0.90;;
13475;SDS011;6810;63.824;20.288;2023-07-20T00:58:49;1.30;;;0.87;;
13475;SDS011;6810;63.824;20.288;2023-07-20T01:01:16;0.80;;;0.80;;
13475;SDS011;6810;63.824;20.288;2023-07-20T01:03:43;2.50;;;0.93;;
13475;SDS011;6810;63.824;20.288;2023-07-20T01:12:35;0.80;;;0.80;;
13475;SDS011;6810;63.824;20.288;2023-07-20T01:14:47;0.90;;;0.90;;
13475;SDS011;6810;63.824;20.288;2023-07-20T01:17:15;1.43;;;0.90;;
13475;SDS011;6810;63.824;20.288;2023-07-20T01:19:43;0.80;;;0.80;;
13475;SDS011;6810;63.824;20.288;2023-07-20T01:32:42;2.13;;;1.00;;
13475;SDS011;6810;63.824;20.288;2023-07-20T01:35:11;1.97;;;0.73;;
13475;SDS011;6810;63.824;20.288;2023-07-20T01:37:43;0.87;;;0.83;;
13475;SDS011;6810;63.824;20.288;2023-07-20T01:40:13;0.70;;;0.70;;
13475;SDS011;6810;63.824;20.288;2023-07-20T01:42:43;0.80;;;0.80;;
13475;SDS011;6810;63.824;20.288;2023-07-20T01:45:12;0.87;;;0.70;;
13475;SDS011;6810;63.824;20.288;2023-07-20T01:47:40;0.80;;;0.80;;
13475;SDS011;6810;63.824;20.288;2023-07-20T01:50:07;1.43;;;0.83;;
13475;SDS011;6810;63.824;20.288;2023-07-20T01:52:35;0.70;;;0.70;;
13475;SDS011;6810;63.824;20.288;2023-07-20T01:55:02;0.70;;;0.70;;
13475;SDS011;6810;63.824;20.288;2023-07-20T01:57:31;1.00;;;0.70;;
13475;SDS011;6810;63.824;20.288;2023-07-20T01:59:58;1.40;;;0.90;;
13475;SDS011;6810;63.824;20.288;2023-07-20T02:02:26;1.73;;;0.87;;
13475;SDS011;6810;63.824;20.288;2023-07-20T02:04:55;0.70;;;0.70;;
13475;SDS011;6810;63.824;20.288;2023-07-20T02:07:22;1.10;;;1.00;;
13475;SDS011;6810;63.824;20.288;2023-07-20T02:09:50;0.80;;;0.80;;
13475;SDS011;6810;63.824;20.288;2023-07-20T02:12:17;0.80;;;0.80;;
13475;SDS011;6810;63.824;20.288;2023-07-20T02:14:44;1.00;;;1.00;;
13475;SDS011;6810;63.824;20.288;2023-07-20T02:17:11;0.70;;;0.70;;
13475;SDS011;6810;63.824;20.288;2023-07-20T02:19:40;0.80;;;0.80;;
13475;SDS011;6810;63.824;20.288;2023-07-20T02:22:08;0.80;;;0.80;;
13475;SDS011;6810;63.824;20.288;2023-07-20T02:24:35;1.17;;;1.00;;
13475;SDS011;6810;63.824;20.288;2023-07-20T02:27:02;0.77;;;0.77;;
13475;SDS011;6810;63.824;20.288;2023-07-20T02:29:29;0.80;;;0.80;;
13475;SDS011;6810;63.824;20.288;2023-07-20T02:31:56;1.00;;;1.00;;
13475;SDS011;6810;63.824;20.288;2023-07-20T02:34:24;1.53;;;0.90;;
13475;SDS011;6810;63.824;20.288;2023-07-20T02:36:51;1.00;;;1.00;;
13475;SDS011;6810;63.824;20.288;2023-07-20T02:39:18;1.30;;;1.20;;
13475;SDS011;6810;63.824;20.288;2023-07-20T02:41:45;1.00;;;0.93;;
13475;SDS011;6810;63.824;20.288;2023-07-20T02:44:14;1.03;;;0.87;;
13475;SDS011;6810;63.824;20.288;2023-07-20T02:46:41;1.67;;;0.90;;
13475;SDS011;6810;63.824;20.288;2023-07-20T02:49:08;1.90;;;0.90;;
13475;SDS011;6810;63.824;20.288;2023-07-20T02:51:36;1.37;;;1.27;;
13475;SDS011;6810;63.824;20.288;2023-07-20T02:54:03;0.70;;;0.70;;
13475;SDS011;6810;63.824;20.288;2023-07-20T02:56:30;0.80;;;0.80;;
13475;SDS011;6810;63.824;20.288;2023-07-20T02:58:57;1.10;;;1.00;;
13475;SDS011;6810;63.824;20.288;2023-07-20T03:01:24;0.80;;;0.80;;
13475;SDS011;6810;63.824;20.288;2023-07-20T03:03:56;2.17;;;1.10;;
13475;SDS011;6810;63.824;20.288;2023-07-20T03:06:23;1.17;;;0.80;;
13475;SDS011;6810;63.824;20.288;2023-07-20T03:08:51;2.03;;;1.07;;
13475;SDS011;6810;63.824;20.288;2023-07-20T03:11:20;0.80;;;0.80;;
13475;SDS011;6810;63.824;20.288;2023-07-20T03:13:47;2.10;;;0.80;;
13475;SDS011;6810;63.824;20.288;2023-07-20T03:16:17;0.80;;;0.80;;
13475;SDS011;6810;63.824;20.288;2023-07-20T03:18:45;0.90;;;0.90;;
13475;SDS011;6810;63.824;20.288;2023-07-20T03:21:13;0.93;;;0.80;;
13475;SDS011;6810;63.824;20.288;2023-07-20T03:23:40;1.03;;;0.90;;
13475;SDS011;6810;63.824;20.288;2023-07-20T03:26:09;0.90;;;0.90;;
13475;SDS011;6810;63.824;20.288;2023-07-20T03:28:36;1.03;;;0.70;;
13475;SDS011;6810;63.824;20.288;2023-07-20T03:31:09;2.17;;;1.00;;
13475;SDS011;6810;63.824;20.288;2023-07-20T03:33:39;1.23;;;0.83;;
13475;SDS011;6810;63.824;20.288;2023-07-20T03:36:08;1.33;;;0.80;;
13475;SDS011;6810;63.824;20.288;2023-07-20T03:38:37;1.10;;;1.00;;
13475;SDS011;6810;63.824;20.288;2023-07-20T03:41:04;0.80;;;0.80;;
13475;SDS011;6810;63.824;20.288;2023-07-20T03:43:31;0.80;;;0.80;;
13475;SDS011;6810;63.824;20.288;2023-07-20T03:45:58;0.90;;;0.90;;
13475;SDS011;6810;63.824;20.288;2023-07-20T03:48:25;1.47;;;0.90;;
13475;SDS011;6810;63.824;20.288;2023-07-20T03:50:52;1.57;;;1.10;;
13475;SDS011;6810;63.824;20.288;2023-07-20T03:53:20;0.67;;;0.67;;
13475;SDS011;6810;63.824;20.288;2023-07-20T03:55:48;1.03;;;0.87;;
13475;SDS011;6810;63.824;20.288;2023-07-20T03:58:16;0.87;;;0.87;;
13475;SDS011;6810;63.824;20.288;2023-07-20T04:00:45;0.80;;;0.80;;
13475;SDS011;6810;63.824;20.288;2023-07-20T04:03:13;2.60;;;1.10;;
13475;SDS011;6810;63.824;20.288;2023-07-20T04:05:41;1.17;;;0.90;;
13475;SDS011;6810;63.824;20.288;2023-07-20T04:08:09;1.27;;;1.10;;
13475;SDS011;6810;63.824;20.288;2023-07-20T04:10:38;0.80;;;0.80;;
13475;SDS011;6810;63.824;20.288;2023-07-20T04:13:05;0.83;;;0.83;;
13475;SDS011;6810;63.824;20.288;2023-07-20T04:15:32;2.47;;;1.00;;
13475;SDS011;6810;63.824;20.288;2023-07-20T04:18:00;0.90;;;0.90;;
13475;SDS011;6810;63.824;20.288;2023-07-20T04:20:27;1.27;;;0.97;;
13475;SDS011;6810;63.824;20.288;2023-07-20T04:22:55;0.90;;;0.90;;
13475;SDS011;6810;63.824;20.288;2023-07-20T04:25:23;0.80;;;0.73;;
13475;SDS011;6810;63.824;20.288;2023-07-20T04:27:50;0.93;;;0.93;;
13475;SDS011;6810;63.824;20.288;2023-07-20T04:30:18;0.90;;;0.87;;
13475;SDS011;6810;63.824;20.288;2023-07-20T04:32:49;1.20;;;1.10;;
13475;SDS011;6810;63.824;20.288;2023-07-20T04:35:44;1.00;;;1.00;;
13475;SDS011;6810;63.824;20.288;2023-07-20T04:38:29;0.90;;;0.90;;
13475;SDS011;6810;63.824;20.288;2023-07-20T04:41:11;0.60;;;0.60;;
13475;SDS011;6810;63.824;20.288;2023-07-20T04:43:45;1.00;;;0.90;;
13475;SDS011;6810;63.824;20.288;2023-07-20T04:46:15;0.73;;;0.73;;
13475;SDS011;6810;63.824;20.288;2023-07-20T04:48:45;1.43;;;0.90;;
13475;SDS011;6810;63.824;20.288;2023-07-20T04:51:12;0.90;;;0.90;;
13475;SDS011;6810;63.824;20.288;2023-07-20T04:53:40;1.37;;;0.90;;
13475;SDS011;6810;63.824;20.288;2023-07-20T04:56:09;2.87;;;0.80;;
13475;SDS011;6810;63.824;20.288;2023-07-20T04:58:36;0.90;;;0.90;;
13475;SDS011;6810;63.824;20.288;2023-07-20T05:01:03;0.90;;;0.90;;
13475;SDS011;6810;63.824;20.288;2023-07-20T05:03:32;0.80;;;0.80;;
13475;SDS011;6810;63.824;20.288;2023-07-20T05:05:59;0.93;;;0.90;;
13475;SDS011;6810;63.824;20.288;2023-07-20T05:08:27;0.77;;;0.77;;
13475;SDS011;6810;63.824;20.288;2023-07-20T05:10:54;0.80;;;0.80;;
13475;SDS011;6810;63.824;20.288;2023-07-20T05:13:21;0.80;;;0.80;;
13475;SDS011;6810;63.824;20.288;2023-07-20T05:16:08;0.80;;;0.80;;
13475;SDS011;6810;63.824;20.288;2023-07-20T05:19:00;0.77;;;0.77;;
13475;SDS011;6810;63.824;20.288;2023-07-20T05:21:48;0.80;;;0.80;;
13475;SDS011;6810;63.824;20.288;2023-07-20T05:24:35;0.83;;;0.73;;
13475;SDS011;6810;63.824;20.288;2023-07-20T05:27:22;0.90;;;0.90;;
13475;SDS011;6810;63.824;20.288;2023-07-20T05:30:09;0.97;;;0.97;;
13475;SDS011;6810;63.824;20.288;2023-07-20T05:32:56;0.73;;;0.73;;
13475;SDS011;6810;63.824;20.288;2023-07-20T05:35:43;1.03;;;1.03;;
13475;SDS011;6810;63.824;20.288;2023-07-20T05:38:44;0.80;;;0.80;;
13475;SDS011;6810;63.824;20.288;2023-07-20T05:41:31;1.10;;;1.00;;
13475;SDS011;6810;63.824;20.288;2023-07-20T05:44:18;0.90;;;0.90;;
13475;SDS011;6810;63.824;20.288;2023-07-20T05:47:07;0.80;;;0.80;;
13475;SDS011;6810;63.824;20.288;2023-07-20T05:49:54;1.13;;;1.07;;
13475;SDS011;6810;63.824;20.288;2023-07-20T05:52:41;0.80;;;0.80;;
13475;SDS011;6810;63.824;20.288;2023-07-20T05:55:28;3.43;;;1.53;;
13475;SDS011;6810;63.824;20.288;2023-07-20T05:58:16;1.13;;;0.90;;
13475;SDS011;6810;63.824;20.288;2023-07-20T06:01:03;2.10;;;0.77;;
13475;SDS011;6810;63.824;20.288;2023-07-20T06:03:50;1.30;;;0.70;;
13475;SDS011;6810;63.824;20.288;2023-07-20T06:06:37;0.70;;;0.60;;
13475;SDS011;6810;63.824;20.288;2023-07-20T06:09:24;0.70;;;0.70;;
13475;SDS011;6810;63.824;20.288;2023-07-20T06:12:12;0.70;;;0.70;;
13475;SDS011;6810;63.824;20.288;2023-07-20T06:15:02;0.73;;;0.70;;
13475;SDS011;6810;63.824;20.288;2023-07-20T06:17:50;0.80;;;0.80;;
13475;SDS011;6810;63.824;20.288;2023-07-20T06:20:37;0.80;;;0.80;;
13475;SDS011;6810;63.824;20.288;2023-07-20T06:23:24;0.80;;;0.80;;
13475;SDS011;6810;63.824;20.288;2023-07-20T06:26:12;0.80;;;0.80;;
13475;SDS011;6810;63.824;20.288;2023-07-20T06:28:59;0.70;;;0.70;;
13475;SDS011;6810;63.824;20.288;2023-07-20T06:31:46;1.80;;;0.90;;
13475;SDS011;6810;63.824;20.288;2023-07-20T06:34:33;0.93;;;0.90;;
13475;SDS011;6810;63.824;20.288;2023-07-20T06:37:20;0.90;;;0.90;;
13475;SDS011;6810;63.824;20.288;2023-07-20T06:40:07;0.90;;;0.80;;
13475;SDS011;6810;63.824;20.288;2023-07-20T06:42:57;0.93;;;0.90;;
13475;SDS011;6810;63.824;20.288;2023-07-20T06:45:53;3.13;;;1.00;;
13475;SDS011;6810;63.824;20.288;2023-07-20T06:48:41;0.63;;;0.63;;
13475;SDS011;6810;63.824;20.288;2023-07-20T06:51:31;0.73;;;0.73;;
13475;SDS011;6810;63.824;20.288;2023-07-20T06:54:17;1.00;;;0.70;;
13475;SDS011;6810;63.824;20.288;2023-07-20T06:57:10;0.80;;;0.80;;
13475;SDS011;6810;63.824;20.288;2023-07-20T06:59:57;0.90;;;0.70;;
13475;SDS011;6810;63.824;20.288;2023-07-20T07:02:44;1.07;;;0.70;;
13475;SDS011;6810;63.824;20.288;2023-07-20T07:05:32;0.80;;;0.80;;
13475;SDS011;6810;63.824;20.288;2023-07-20T07:08:23;0.60;;;0.60;;
13475;SDS011;6810;63.824;20.288;2023-07-20T07:11:10;1.47;;;0.70;;
13475;SDS011;6810;63.824;20.288;2023-07-20T07:13:57;0.60;;;0.60;;
13475;SDS011;6810;63.824;20.288;2023-07-20T07:16:44;0.83;;;0.60;;
13475;SDS011;6810;63.824;20.288;2023-07-20T07:19:31;0.60;;;0.60;;
13475;SDS011;6810;63.824;20.288;2023-07-20T07:22:18;0.80;;;0.80;;
13475;SDS011;6810;63.824;20.288;2023-07-20T07:25:06;0.60;;;0.60;;
13475;SDS011;6810;63.824;20.288;2023-07-20T07:27:53;0.60;;;0.60;;
13475;SDS011;6810;63.824;20.288;2023-07-20T07:30:41;1.17;;;0.70;;
13475;SDS011;6810;63.824;20.288;2023-07-20T07:33:28;0.60;;;0.60;;
13475;SDS011;6810;63.824;20.288;2023-07-20T07:36:15;0.70;;;0.70;;
13475;SDS011;6810;63.824;20.288;2023-07-20T07:39:02;0.77;;;0.77;;
13475;SDS011;6810;63.824;20.288;2023-07-20T07:41:52;0.90;;;0.90;;
13475;SDS011;6810;63.824;20.288;2023-07-20T07:44:39;0.90;;;0.90;;
13475;SDS011;6810;63.824;20.288;2023-07-20T07:47:26;1.33;;;0.80;;
13475;SDS011;6810;63.824;20.288;2023-07-20T07:50:13;1.20;;;1.10;;
13475;SDS011;6810;63.824;20.288;2023-07-20T07:53:00;0.90;;;0.90;;
13475;SDS011;6810;63.824;20.288;2023-07-20T07:55:48;0.80;;;0.80;;
13475;SDS011;6810;63.824;20.288;2023-07-20T07:58:35;0.90;;;0.90;;
13475;SDS011;6810;63.824;20.288;2023-07-20T08:01:23;1.10;;;1.00;;
13475;SDS011;6810;63.824;20.288;2023-07-20T08:04:10;1.00;;;1.00;;
13475;SDS011;6810;63.824;20.288;2023-07-20T08:07:01;0.80;;;0.80;;
13475;SDS011;6810;63.824;20.288;2023-07-20T08:09:50;0.70;;;0.70;;
13475;SDS011;6810;63.824;20.288;2023-07-20T08:12:37;0.80;;;0.80;;
13475;SDS011;6810;63.824;20.288;2023-07-20T08:15:24;0.80;;;0.80;;
13475;SDS011;6810;63.824;20.288;2023-07-20T08:18:11;0.90;;;0.90;;
13475;SDS011;6810;63.824;20.288;2023-07-20T08:20:59;0.90;;;0.90;;
13475;SDS011;6810;63.824;20.288;2023-07-20T08:23:46;1.03;;;1.00;;
13475;SDS011;6810;63.824;20.288;2023-07-20T08:26:33;0.80;;;0.80;;
13475;SDS011;6810;63.824;20.288;2023-07-20T08:29:21;1.00;;;1.00;;
13475;SDS011;6810;63.824;20.288;2023-07-20T08:32:08;0.83;;;0.83;;
13475;SDS011;6810;63.824;20.288;2023-07-20T08:34:55;0.83;;;0.83;;
13475;SDS011;6810;63.824;20.288;2023-07-20T08:37:42;1.00;;;0.90;;
13475;SDS011;6810;63.824;20.288;2023-07-20T08:40:30;1.00;;;1.00;;
13475;SDS011;6810;63.824;20.288;2023-07-20T08:43:18;1.00;;;0.90;;
13475;SDS011;6810;63.824;20.288;2023-07-20T08:46:06;0.97;;;0.97;;
13475;SDS011;6810;63.824;20.288;2023-07-20T08:48:53;0.83;;;0.83;;
13475;SDS011;6810;63.824;20.288;2023-07-20T08:51:41;0.80;;;0.80;;
13475;SDS011;6810;63.824;20.288;2023-07-20T08:54:30;1.03;;;0.97;;
13475;SDS011;6810;63.824;20.288;2023-07-20T08:57:20;0.90;;;0.90;;
13475;SDS011;6810;63.824;20.288;2023-07-20T09:00:08;1.00;;;1.00;;
13475;SDS011;6810;63.824;20.288;2023-07-20T09:02:56;1.83;;;1.00;;
13475;SDS011;6810;63.824;20.288;2023-07-20T09:05:44;0.90;;;0.90;;
13475;SDS011;6810;63.824;20.288;2023-07-20T09:08:31;0.87;;;0.87;;
13475;SDS011;6810;63.824;20.288;2023-07-20T09:11:18;0.67;;;0.67;;
13475;SDS011;6810;63.824;20.288;2023-07-20T09:14:05;0.60;;;0.60;;
13475;SDS011;6810;63.824;20.288;2023-07-20T09:16:54;0.70;;;0.70;;
13475;SDS011;6810;63.824;20.288;2023-07-20T09:19:47;0.60;;;0.60;;
13475;SDS011;6810;63.824;20.288;2023-07-20T09:22:34;0.67;;;0.67;;
13475;SDS011;6810;63.824;20.288;2023-07-20T09:25:22;0.97;;;0.53;;
13475;SDS011;6810;63.824;20.288;2023-07-20T09:28:09;0.67;;;0.67;;
13475;SDS011;6810;63.824;20.288;2023-07-20T09:30:56;0.50;;;0.50;;
13475;SDS011;6810;63.824;20.288;2023-07-20T09:33:46;0.50;;;0.50;;
13475;SDS011;6810;63.824;20.288;2023-07-20T09:36:35;0.83;;;0.80;;
13475;SDS011;6810;63.824;20.288;2023-07-20T09:39:25;0.67;;;0.60;;
13475;SDS011;6810;63.824;20.288;2023-07-20T09:42:16;0.63;;;0.63;;
13475;SDS011;6810;63.824;20.288;2023-07-20T09:45:06;0.50;;;0.50;;
13475;SDS011;6810;63.824;20.288;2023-07-20T09:48:06;0.67;;;0.67;;
13475;SDS011;6810;63.824;20.288;2023-07-20T09:50:57;0.60;;;0.60;;
13475;SDS011;6810;63.824;20.288;2023-07-20T09:53:43;0.73;;;0.40;;
13475;SDS011;6810;63.824;20.288;2023-07-20T09:56:32;0.43;;;0.43;;
13475;SDS011;6810;63.824;20.288;2023-07-20T09:59:20;0.87;;;0.80;;
13475;SDS011;6810;63.824;20.288;2023-07-20T10:02:11;0.67;;;0.60;;
13475;SDS011;6810;63.824;20.288;2023-07-20T10:05:05;0.83;;;0.83;;
13475;SDS011;6810;63.824;20.288;2023-07-20T10:07:54;0.60;;;0.60;;
13475;SDS011;6810;63.824;20.288;2023-07-20T10:10:45;0.50;;;0.50;;
13475;SDS011;6810;63.824;20.288;2023-07-20T10:13:37;0.57;;;0.50;;
13475;SDS011;6810;63.824;20.288;2023-07-20T10:22:25;0.60;;;0.60;;
13475;SDS011;6810;63.824;20.288;2023-07-20T10:25:13;0.50;;;0.50;;
13475;SDS011;6810;63.824;20.288;2023-07-20T10:28:01;0.53;;;0.53;;
13475;SDS011;6810;63.824;20.288;2023-07-20T10:30:48;0.50;;;0.40;;
13475;SDS011;6810;63.824;20.288;2023-07-20T10:33:37;0.60;;;0.60;;
13475;SDS011;6810;63.824;20.288;2023-07-20T10:36:25;0.40;;;0.40;;
13475;SDS011;6810;63.824;20.288;2023-07-20T10:39:25;0.93;;;0.50;;
13475;SDS011;6810;63.824;20.288;2023-07-20T10:42:13;0.60;;;0.60;;
13475;SDS011;6810;63.824;20.288;2023-07-20T10:45:01;0.50;;;0.50;;
13475;SDS011;6810;63.824;20.288;2023-07-20T10:47:48;0.40;;;0.40;;
13475;SDS011;6810;63.824;20.288;2023-07-20T10:50:35;0.87;;;0.77;;
13475;SDS011;6810;63.824;20.288;2023-07-20T10:53:22;0.80;;;0.80;;
13475;SDS011;6810;63.824;20.288;2023-07-20T10:56:13;0.60;;;0.60;;
13475;SDS011;6810;63.824;20.288;2023-07-20T10:59:01;1.23;;;0.43;;
13475;SDS011;6810;63.824;20.288;2023-07-20T11:02:07;1.23;;;0.50;;
13475;SDS011;6810;63.824;20.288;2023-07-20T11:04:55;0.40;;;0.40;;
13475;SDS011;6810;63.824;20.288;2023-07-20T11:07:42;0.50;;;0.50;;
13475;SDS011;6810;63.824;20.288;2023-07-20T11:10:31;0.50;;;0.50;;
13475;SDS011;6810;63.824;20.288;2023-07-20T11:13:19;0.53;;;0.53;;
13475;SDS011;6810;63.824;20.288;2023-07-20T11:16:08;0.90;;;0.50;;
13475;SDS011;6810;63.824;20.288;2023-07-20T11:18:55;0.50;;;0.50;;
13475;SDS011;6810;63.824;20.288;2023-07-20T11:22:03;0.40;;;0.40;;
13475;SDS011;6810;63.824;20.288;2023-07-20T11:24:54;0.70;;;0.70;;
13475;SDS011;6810;63.824;20.288;2023-07-20T11:27:45;0.73;;;0.73;;
13475;SDS011;6810;63.824;20.288;2023-07-20T11:30:33;0.70;;;0.70;;
13475;SDS011;6810;63.824;20.288;2023-07-20T11:33:21;0.70;;;0.70;;
13475;SDS011;6810;63.824;20.288;2023-07-20T11:36:08;1.27;;;0.80;;
13475;SDS011;6810;63.824;20.288;2023-07-20T11:38:59;2.67;;;0.97;;
13475;SDS011;6810;63.824;20.288;2023-07-20T11:41:50;0.83;;;0.83;;
13475;SDS011;6810;63.824;20.288;2023-07-20T11:44:39;0.87;;;0.87;;
13475;SDS011;6810;63.824;20.288;2023-07-20T11:47:28;0.73;;;0.73;;
13475;SDS011;6810;63.824;20.288;2023-07-20T11:50:16;0.80;;;0.80;;
13475;SDS011;6810;63.824;20.288;2023-07-20T11:53:03;1.17;;;0.90;;
13475;SDS011;6810;63.824;20.288;2023-07-20T11:55:51;0.93;;;0.93;;
13475;SDS011;6810;63.824;20.288;2023-07-20T11:58:43;0.93;;;0.90;;
13475;SDS011;6810;63.824;20.288;2023-07-20T12:01:34;0.67;;;0.67;;
13475;SDS011;6810;63.824;20.288;2023-07-20T12:04:24;3.00;;;0.90;;
13475;SDS011;6810;63.824;20.288;2023-07-20T12:07:12;1.10;;;0.77;;
13475;SDS011;6810;63.824;20.288;2023-07-20T12:10:06;0.70;;;0.70;;
13475;SDS011;6810;63.824;20.288;2023-07-20T12:13:00;0.70;;;0.70;;
13475;SDS011;6810;63.824;20.288;2023-07-20T12:15:48;0.90;;;0.70;;
13475;SDS011;6810;63.824;20.288;2023-07-20T12:18:35;0.90;;;0.90;;
13475;SDS011;6810;63.824;20.288;2023-07-20T12:21:25;0.83;;;0.80;;
13475;SDS011;6810;63.824;20.288;2023-07-20T12:24:12;0.60;;;0.60;;
13475;SDS011;6810;63.824;20.288;2023-07-20T12:26:59;0.80;;;0.80;;
13475;SDS011;6810;63.824;20.288;2023-07-20T12:29:46;2.80;;;0.90;;
13475;SDS011;6810;63.824;20.288;2023-07-20T12:32:33;1.43;;;0.80;;
13475;SDS011;6810;63.824;20.288;2023-07-20T12:35:20;1.50;;;0.87;;
13475;SDS011;6810;63.824;20.288;2023-07-20T12:38:08;1.13;;;0.90;;
13475;SDS011;6810;63.824;20.288;2023-07-20T12:40:55;2.30;;;0.80;;
13475;SDS011;6810;63.824;20.288;2023-07-20T12:43:46;1.03;;;0.73;;
13475;SDS011;6810;63.824;20.288;2023-07-20T12:46:33;1.17;;;0.80;;
13475;SDS011;6810;63.824;20.288;2023-07-20T12:49:20;3.17;;;1.03;;
13475;SDS011;6810;63.824;20.288;2023-07-20T12:52:07;1.53;;;0.90;;
13475;SDS011;6810;63.824;20.288;2023-07-20T12:54:54;0.83;;;0.80;;
13475;SDS011;6810;63.824;20.288;2023-07-20T12:57:41;0.50;;;0.50;;
13475;SDS011;6810;63.824;20.288;2023-07-20T13:00:28;0.83;;;0.50;;
13475;SDS011;6810;63.824;20.288;2023-07-20T13:03:15;0.93;;;0.40;;
13475;SDS011;6810;63.824;20.288;2023-07-20T13:06:23;0.40;;;0.40;;
13475;SDS011;6810;63.824;20.288;2023-07-20T13:09:11;0.50;;;0.50;;
13475;SDS011;6810;63.824;20.288;2023-07-20T13:11:58;0.50;;;0.50;;
13475;SDS011;6810;63.824;20.288;2023-07-20T13:14:45;0.53;;;0.53;;
13475;SDS011;6810;63.824;20.288;2023-07-20T13:17:36;0.43;;;0.43;;
13475;SDS011;6810;63.824;20.288;2023-07-20T13:20:25;0.67;;;0.50;;
13475;SDS011;6810;63.824;20.288;2023-07-20T13:23:12;1.17;;;0.40;;
13475;SDS011;6810;63.824;20.288;2023-07-20T13:25:59;0.50;;;0.40;;
13475;SDS011;6810;63.824;20.288;2023-07-20T13:28:46;0.67;;;0.67;;
13475;SDS011;6810;63.824;20.288;2023-07-20T13:31:34;0.93;;;0.43;;
13475;SDS011;6810;63.824;20.288;2023-07-20T13:34:21;0.40;;;0.40;;
13475;SDS011;6810;63.824;20.288;2023-07-20T13:37:09;0.57;;;0.40;;
13475;SDS011;6810;63.824;20.288;2023-07-20T13:39:56;0.43;;;0.30;;
13475;SDS011;6810;63.824;20.288;2023-07-20T13:42:44;0.93;;;0.40;;
13475;SDS011;6810;63.824;20.288;2023-07-20T13:45:32;1.33;;;0.50;;
13475;SDS011;6810;63.824;20.288;2023-07-20T13:48:19;1.17;;;0.50;;
13475;SDS011;6810;63.824;20.288;2023-07-20T13:51:06;1.27;;;0.57;;
13475;SDS011;6810;63.824;20.288;2023-07-20T13:53:54;2.87;;;0.63;;
13475;SDS011;6810;63.824;20.288;2023-07-20T13:56:43;0.57;;;0.57;;
13475;SDS011;6810;63.824;20.288;2023-07-20T13:59:31;0.60;;;0.40;;
13475;SDS011;6810;63.824;20.288;2023-07-20T14:02:18;0.50;;;0.50;;
13475;SDS011;6810;63.824;20.288;2023-07-20T14:05:08;0.67;;;0.67;;
13475;SDS011;6810;63.824;20.288;2023-07-20T14:07:58;1.27;;;0.60;;
13475;SDS011;6810;63.824;20.288;2023-07-20T14:10:45;0.70;;;0.70;;
13475;SDS011;6810;63.824;20.288;2023-07-20T14:13:35;0.60;;;0.60;;
13475;SDS011;6810;63.824;20.288;2023-07-20T14:16:22;0.73;;;0.73;;
13475;SDS011;6810;63.824;20.288;2023-07-20T14:19:09;0.70;;;0.70;;
13475;SDS011;6810;63.824;20.288;2023-07-20T14:21:56;0.80;;;0.80;;
13475;SDS011;6810;63.824;20.288;2023-07-20T14:24:45;1.10;;;1.00;;
13475;SDS011;6810;63.824;20.288;2023-07-20T14:27:35;1.20;;;1.10;;
13475;SDS011;6810;63.824;20.288;2023-07-20T14:30:22;1.00;;;0.90;;
13475;SDS011;6810;63.824;20.288;2023-07-20T14:33:09;1.00;;;0.90;;
13475;SDS011;6810;63.824;20.288;2023-07-20T14:35:56;0.80;;;0.80;;
13475;SDS011;6810;63.824;20.288;2023-07-20T14:38:44;1.37;;;1.00;;
13475;SDS011;6810;63.824;20.288;2023-07-20T14:41:31;1.07;;;0.90;;
13475;SDS011;6810;63.824;20.288;2023-07-20T14:44:19;1.03;;;1.03;;
13475;SDS011;6810;63.824;20.288;2023-07-20T14:47:06;0.93;;;0.93;;
13475;SDS011;6810;63.824;20.288;2023-07-20T14:49:53;1.13;;;1.00;;
13475;SDS011;6810;63.824;20.288;2023-07-20T14:52:40;1.43;;;1.10;;
13475;SDS011;6810;63.824;20.288;2023-07-20T14:55:32;0.90;;;0.90;;
13475;SDS011;6810;63.824;20.288;2023-07-20T14:58:19;1.37;;;0.97;;
13475;SDS011;6810;63.824;20.288;2023-07-20T15:01:06;0.97;;;0.97;;
13475;SDS011;6810;63.824;20.288;2023-07-20T15:03:53;1.40;;;1.00;;
13475;SDS011;6810;63.824;20.288;2023-07-20T15:06:41;1.80;;;1.23;;
13475;SDS011;6810;63.824;20.288;2023-07-20T15:09:28;1.50;;;1.30;;
13475;SDS011;6810;63.824;20.288;2023-07-20T15:12:15;1.00;;;1.00;;
13475;SDS011;6810;63.824;20.288;2023-07-20T15:15:08;1.37;;;1.00;;
13475;SDS011;6810;63.824;20.288;2023-07-20T15:17:57;1.00;;;1.00;;
13475;SDS011;6810;63.824;20.288;2023-07-20T15:20:44;1.43;;;1.00;;
13475;SDS011;6810;63.824;20.288;2023-07-20T15:23:31;0.60;;;0.60;;
13475;SDS011;6810;63.824;20.288;2023-07-20T15:26:18;0.57;;;0.57;;
13475;SDS011;6810;63.824;20.288;2023-07-20T15:29:05;0.50;;;0.50;;
13475;SDS011;6810;63.824;20.288;2023-07-20T15:31:55;0.70;;;0.70;;
13475;SDS011;6810;63.824;20.288;2023-07-20T15:34:42;2.00;;;0.90;;
13475;SDS011;6810;63.824;20.288;2023-07-20T15:37:30;0.80;;;0.80;;
13475;SDS011;6810;63.824;20.288;2023-07-20T15:40:17;1.57;;;0.70;;
13475;SDS011;6810;63.824;20.288;2023-07-20T15:43:05;0.67;;;0.67;;
13475;SDS011;6810;63.824;20.288;2023-07-20T15:45:55;0.70;;;0.70;;
13475;SDS011;6810;63.824;20.288;2023-07-20T15:49:15;1.10;;;0.80;;
13475;SDS011;6810;63.824;20.288;2023-07-20T15:52:02;0.60;;;0.60;;
13475;SDS011;6810;63.824;20.288;2023-07-20T15:54:50;0.90;;;0.90;;
13475;SDS011;6810;63.824;20.288;2023-07-20T15:57:37;0.97;;;0.67;;
13475;SDS011;6810;63.824;20.288;2023-07-20T16:00:24;0.60;;;0.60;;
13475;SDS011;6810;63.824;20.288;2023-07-20T16:03:11;0.90;;;0.70;;
13475;SDS011;6810;63.824;20.288;2023-07-20T16:06:01;0.90;;;0.90;;
13475;SDS011;6810;63.824;20.288;2023-07-20T16:08:49;0.83;;;0.80;;
13475;SDS011;6810;63.824;20.288;2023-07-20T16:11:36;0.90;;;0.90;;
13475;SDS011;6810;63.824;20.288;2023-07-20T16:14:23;0.60;;;0.60;;
13475;SDS011;6810;63.824;20.288;2023-07-20T16:17:13;0.80;;;0.80;;
13475;SDS011;6810;63.824;20.288;2023-07-20T16:20:00;0.67;;;0.67;;
13475;SDS011;6810;63.824;20.288;2023-07-20T16:22:47;0.77;;;0.77;;
13475;SDS011;6810;63.824;20.288;2023-07-20T16:25:35;0.63;;;0.63;;
13475;SDS011;6810;63.824;20.288;2023-07-20T16:28:22;1.67;;;0.80;;
13475;SDS011;6810;63.824;20.288;2023-07-20T16:31:10;0.60;;;0.60;;
13475;SDS011;6810;63.824;20.288;2023-07-20T16:33:58;0.70;;;0.70;;
13475;SDS011;6810;63.824;20.288;2023-07-20T16:36:45;0.73;;;0.73;;
13475;SDS011;6810;63.824;20.288;2023-07-20T16:39:52;1.27;;;0.70;;